createdAt,value
2019-06-26T00:17:08.841Z,17.16
2019-06-26T00:37:18.336Z,18.53
2019-06-26T00:57:27.654Z,13.88
2019-06-26T01:17:37.069Z,15.14
2019-06-26T01:37:51.099Z,14.65
2019-06-26T01:57:52.784Z,16.37
2019-06-26T02:17:52.207Z,13.69
2019-06-26T02:38:01.571Z,15.12
2019-06-26T02:58:13.253Z,24.27
2019-06-26T03:18:12.645Z,25.20
2019-06-26T03:38:22.049Z,20.31
2019-06-26T03:58:33.783Z,14.30
2019-06-26T04:18:33.194Z,11.38
2019-06-26T04:38:42.629Z,17.87
2019-06-26T04:58:54.289Z,13.75
2019-06-26T05:18:58.263Z,13.97
2019-06-26T05:38:57.675Z,15.44
2019-06-26T05:59:07.091Z,11.71
2019-06-26T06:19:16.576Z,10.28
2019-06-26T06:39:28.215Z,8.30
2019-06-26T06:59:27.726Z,6.15
2019-06-26T07:19:37.078Z,13.29
2019-06-26T07:39:46.621Z,8.09
2019-06-26T07:59:55.933Z,10.62
2019-06-26T08:20:05.323Z,10.10
2019-06-26T08:40:14.771Z,6.51
2019-06-26T09:00:28.882Z,5.47
2019-06-26T09:20:28.303Z,7.94
2019-06-26T09:40:37.870Z,7.00
2019-06-26T10:00:47.462Z,7.83
2019-06-26T10:20:59.579Z,5.72
2019-06-26T10:40:59.247Z,7.20
2019-06-26T11:01:08.650Z,9.78
2019-06-26T11:21:20.441Z,7.70
2019-06-26T11:41:20.006Z,10.48
2019-06-26T12:01:29.450Z,8.26
2019-06-26T12:21:38.925Z,7.27
2019-06-26T12:41:48.325Z,10.05
2019-06-26T13:01:57.702Z,9.35
2019-06-26T13:22:09.673Z,9.50
2019-06-26T13:42:09.230Z,10.24
2019-06-26T14:02:19.937Z,9.19
2019-06-26T14:22:27.940Z,7.80
2019-06-26T14:42:37.700Z,11.09
2019-06-26T15:02:49.804Z,9.66
2019-06-26T15:22:49.326Z,12.62
2019-06-26T15:43:01.072Z,12.53
2019-06-26T16:03:01.412Z,11.52
2019-06-26T16:23:01.046Z,11.09
2019-06-26T16:43:10.598Z,15.62
2019-06-26T17:03:20.349Z,12.87
2019-06-26T17:23:29.874Z,13.85
2019-06-26T17:44:00.873Z,14.71
2019-06-26T18:23:57.069Z,35.28
2019-06-26T18:44:08.145Z,28.54
2019-06-26T19:04:09.859Z,21.08
2019-06-26T19:24:10.534Z,17.27
2019-06-26T19:44:18.212Z,16.37
2019-06-26T20:04:27.586Z,13.57
2019-06-26T20:24:44.096Z,13.19
2019-06-26T20:44:45.911Z,11.25
2019-06-26T21:04:55.425Z,8.54
2019-06-26T21:25:17.862Z,10.32
2019-06-26T21:45:08.333Z,9.60
2019-06-26T22:05:07.776Z,9.36
2019-06-26T22:25:17.220Z,8.99
2019-06-26T22:45:26.606Z,11.13
2019-06-26T23:05:38.318Z,10.26
2019-06-26T23:25:37.692Z,14.68
2019-06-26T23:45:47.030Z,10.02
